sensor_id;sensor_type;location;lat;lon;timestamp;temperature;humidity
16521;DHT22;8373;48.110;11.522;2023-06-19T00:00:04;23.80;46.40
16521;DHT22;8373;48.110;11.522;2023-06-19T00:02:52;23.80;46.20
16521;DHT22;8373;48.110;11.522;2023-06-19T00:05:33;23.90;46.10
16521;DHT22;8373;48.110;11.522;2023-06-19T00:08:17;23.90;45.90
16521;DHT22;8373;48.110;11.522;2023-06-19T00:11:13;23.90;45.90
16521;DHT22;8373;48.110;11.522;2023-06-19T00:14:03;23.80;45.90
16521;DHT22;8373;48.110;11.522;2023-06-19T00:16:46;23.80;46.00
16521;DHT22;8373;48.110;11.522;2023-06-19T00:19:25;23.70;46.10
16521;DHT22;8373;48.110;11.522;2023-06-19T00:22:52;23.60;46.20
16521;DHT22;8373;48.110;11.522;2023-06-19T00:25:47;23.50;46.40
16521;DHT22;8373;48.110;11.522;2023-06-19T00:28:27;23.40;46.70
16521;DHT22;8373;48.110;11.522;2023-06-19T00:31:14;23.30;47.00
16521;DHT22;8373;48.110;11.522;2023-06-19T00:33:55;23.20;47.80
16521;DHT22;8373;48.110;11.522;2023-06-19T00:39:52;23.20;47.40
16521;DHT22;8373;48.110;11.522;2023-06-19T00:42:34;23.10;47.40
16521;DHT22;8373;48.110;11.522;2023-06-19T00:55:26;23.30;47.60
16521;DHT22;8373;48.110;11.522;2023-06-19T01:09:02;23.30;48.10
16521;DHT22;8373;48.110;11.522;2023-06-19T01:18:59;23.50;48.30
16521;DHT22;8373;48.110;11.522;2023-06-19T01:22:39;23.50;48.30
16521;DHT22;8373;48.110;11.522;2023-06-19T01:37:16;23.60;48.60
16521;DHT22;8373;48.110;11.522;2023-06-19T01:40:25;23.50;48.50
16521;DHT22;8373;48.110;11.522;2023-06-19T01:43:33;23.60;48.50
16521;DHT22;8373;48.110;11.522;2023-06-19T01:55:57;23.70;48.50
16521;DHT22;8373;48.110;11.522;2023-06-19T01:58:43;23.60;48.50
16521;DHT22;8373;48.110;11.522;2023-06-19T02:01:19;23.70;48.70
16521;DHT22;8373;48.110;11.522;2023-06-19T02:04:00;23.70;48.40
16521;DHT22;8373;48.110;11.522;2023-06-19T02:07:02;23.70;48.40
16521;DHT22;8373;48.110;11.522;2023-06-19T02:10:01;23.70;48.50
16521;DHT22;8373;48.110;11.522;2023-06-19T02:16:27;23.80;48.70
16521;DHT22;8373;48.110;11.522;2023-06-19T02:19:13;23.80;48.90
16521;DHT22;8373;48.110;11.522;2023-06-19T04:03:47;22.80;52.70
16521;DHT22;8373;48.110;11.522;2023-06-19T04:06:19;22.80;52.80
16521;DHT22;8373;48.110;11.522;2023-06-19T04:08:55;22.90;52.90
16521;DHT22;8373;48.110;11.522;2023-06-19T04:11:24;22.80;52.90
16521;DHT22;8373;48.110;11.522;2023-06-19T04:13:57;22.70;52.90
16521;DHT22;8373;48.110;11.522;2023-06-19T04:16:31;22.80;52.90
16521;DHT22;8373;48.110;11.522;2023-06-19T04:19:03;22.90;52.90
16521;DHT22;8373;48.110;11.522;2023-06-19T04:21:38;22.90;52.80
16521;DHT22;8373;48.110;11.522;2023-06-19T04:24:11;22.90;53.00
16521;DHT22;8373;48.110;11.522;2023-06-19T04:26:41;22.90;53.00
16521;DHT22;8373;48.110;11.522;2023-06-19T04:29:22;23.00;53.10
16521;DHT22;8373;48.110;11.522;2023-06-19T04:32:38;23.10;52.90
16521;DHT22;8373;48.110;11.522;2023-06-19T04:35:54;23.10;52.70
16521;DHT22;8373;48.110;11.522;2023-06-19T04:39:07;23.00;52.90
16521;DHT22;8373;48.110;11.522;2023-06-19T04:42:53;23.10;53.20
16521;DHT22;8373;48.110;11.522;2023-06-19T05:03:34;23.30;53.30
16521;DHT22;8373;48.110;11.522;2023-06-19T05:07:03;23.40;53.40
16521;DHT22;8373;48.110;11.522;2023-06-19T05:16:51;23.20;54.20
16521;DHT22;8373;48.110;11.522;2023-06-19T05:23:20;23.30;55.30
16521;DHT22;8373;48.110;11.522;2023-06-19T05:25:52;23.40;55.40
16521;DHT22;8373;48.110;11.522;2023-06-19T05:28:24;23.40;56.30
16521;DHT22;8373;48.110;11.522;2023-06-19T05:30:55;23.40;55.90
16521;DHT22;8373;48.110;11.522;2023-06-19T05:33:27;23.40;55.90
16521;DHT22;8373;48.110;11.522;2023-06-19T05:35:58;23.50;55.80
16521;DHT22;8373;48.110;11.522;2023-06-19T05:38:31;23.50;55.70
16521;DHT22;8373;48.110;11.522;2023-06-19T05:41:05;23.50;55.70
16521;DHT22;8373;48.110;11.522;2023-06-19T05:43:34;23.50;55.80
16521;DHT22;8373;48.110;11.522;2023-06-19T05:46:01;23.50;55.90
16521;DHT22;8373;48.110;11.522;2023-06-19T05:48:29;23.40;55.90
16521;DHT22;8373;48.110;11.522;2023-06-19T05:50:57;23.50;56.30
16521;DHT22;8373;48.110;11.522;2023-06-19T05:53:25;23.50;57.00
16521;DHT22;8373;48.110;11.522;2023-06-19T05:55:55;23.50;56.80
16521;DHT22;8373;48.110;11.522;2023-06-19T05:58:24;23.50;56.70
16521;DHT22;8373;48.110;11.522;2023-06-19T06:00:51;23.50;57.00
16521;DHT22;8373;48.110;11.522;2023-06-19T06:03:23;23.50;57.10
16521;DHT22;8373;48.110;11.522;2023-06-19T06:05:51;23.50;57.10
16521;DHT22;8373;48.110;11.522;2023-06-19T06:08:18;23.50;57.10
16521;DHT22;8373;48.110;11.522;2023-06-19T06:10:47;23.60;57.00
16521;DHT22;8373;48.110;11.522;2023-06-19T06:13:17;23.60;56.70
16521;DHT22;8373;48.110;11.522;2023-06-19T06:15:46;23.70;56.60
16521;DHT22;8373;48.110;11.522;2023-06-19T06:18:15;23.70;56.20
16521;DHT22;8373;48.110;11.522;2023-06-19T06:21:01;23.80;56.30
16521;DHT22;8373;48.110;11.522;2023-06-19T06:23:34;23.80;56.00
16521;DHT22;8373;48.110;11.522;2023-06-19T06:26:09;23.80;55.70
16521;DHT22;8373;48.110;11.522;2023-06-19T06:29:19;23.80;55.30
16521;DHT22;8373;48.110;11.522;2023-06-19T06:32:04;23.90;55.60
16521;DHT22;8373;48.110;11.522;2023-06-19T06:34:45;24.00;55.30
16521;DHT22;8373;48.110;11.522;2023-06-19T06:37:22;24.10;55.40
16521;DHT22;8373;48.110;11.522;2023-06-19T06:40:17;24.30;55.10
16521;DHT22;8373;48.110;11.522;2023-06-19T06:43:08;24.50;54.90
16521;DHT22;8373;48.110;11.522;2023-06-19T06:46:08;24.60;54.30
16521;DHT22;8373;48.110;11.522;2023-06-19T06:48:45;24.80;54.20
16521;DHT22;8373;48.110;11.522;2023-06-19T06:51:14;25.00;54.50
16521;DHT22;8373;48.110;11.522;2023-06-19T06:53:54;25.10;53.50
16521;DHT22;8373;48.110;11.522;2023-06-19T06:56:57;25.20;53.60
16521;DHT22;8373;48.110;11.522;2023-06-19T06:59:32;25.20;52.90
16521;DHT22;8373;48.110;11.522;2023-06-19T07:02:04;25.10;52.60
16521;DHT22;8373;48.110;11.522;2023-06-19T07:04:31;25.10;52.80
16521;DHT22;8373;48.110;11.522;2023-06-19T07:07:15;25.00;52.50
16521;DHT22;8373;48.110;11.522;2023-06-19T07:10:08;25.00;52.30
16521;DHT22;8373;48.110;11.522;2023-06-19T07:12:57;24.90;52.60
16521;DHT22;8373;48.110;11.522;2023-06-19T07:15:31;24.80;53.00
16521;DHT22;8373;48.110;11.522;2023-06-19T07:21:58;25.10;53.00
16521;DHT22;8373;48.110;11.522;2023-06-19T07:28:07;25.50;52.80
16521;DHT22;8373;48.110;11.522;2023-06-19T07:30:50;25.70;52.40
16521;DHT22;8373;48.110;11.522;2023-06-19T07:33:52;25.80;51.60
16521;DHT22;8373;48.110;11.522;2023-06-19T07:36:51;26.00;51.20
16521;DHT22;8373;48.110;11.522;2023-06-19T07:40:12;26.20;51.20
16521;DHT22;8373;48.110;11.522;2023-06-19T07:43:09;26.20;50.80
16521;DHT22;8373;48.110;11.522;2023-06-19T07:45:40;26.20;50.70
16521;DHT22;8373;48.110;11.522;2023-06-19T07:48:09;26.40;50.20
16521;DHT22;8373;48.110;11.522;2023-06-19T07:50:41;26.60;50.20
16521;DHT22;8373;48.110;11.522;2023-06-19T07:53:14;26.70;50.10
16521;DHT22;8373;48.110;11.522;2023-06-19T07:55:49;26.70;49.70
16521;DHT22;8373;48.110;11.522;2023-06-19T07:58:35;26.80;49.10
16521;DHT22;8373;48.110;11.522;2023-06-19T08:01:09;26.90;49.40
16521;DHT22;8373;48.110;11.522;2023-06-19T08:03:49;26.90;48.60
16521;DHT22;8373;48.110;11.522;2023-06-19T08:06:32;27.10;48.50
16521;DHT22;8373;48.110;11.522;2023-06-19T08:09:14;27.20;48.70
16521;DHT22;8373;48.110;11.522;2023-06-19T08:11:56;27.40;48.70
16521;DHT22;8373;48.110;11.522;2023-06-19T08:14:27;27.40;48.30
16521;DHT22;8373;48.110;11.522;2023-06-19T08:17:02;27.50;48.50
16521;DHT22;8373;48.110;11.522;2023-06-19T08:19:38;27.70;48.30
16521;DHT22;8373;48.110;11.522;2023-06-19T08:22:15;27.80;47.10
16521;DHT22;8373;48.110;11.522;2023-06-19T08:25:27;27.80;47.70
16521;DHT22;8373;48.110;11.522;2023-06-19T08:28:08;27.70;47.70
16521;DHT22;8373;48.110;11.522;2023-06-19T08:30:47;27.80;48.20
16521;DHT22;8373;48.110;11.522;2023-06-19T08:33:29;27.90;47.40
16521;DHT22;8373;48.110;11.522;2023-06-19T08:36:12;28.00;47.90
16521;DHT22;8373;48.110;11.522;2023-06-19T08:38:46;28.20;46.90
16521;DHT22;8373;48.110;11.522;2023-06-19T08:41:18;28.20;46.40
16521;DHT22;8373;48.110;11.522;2023-06-19T08:44:06;28.20;46.60
16521;DHT22;8373;48.110;11.522;2023-06-19T08:46:48;28.20;46.90
16521;DHT22;8373;48.110;11.522;2023-06-19T08:49:22;28.20;46.90
16521;DHT22;8373;48.110;11.522;2023-06-19T08:52:02;28.30;47.10
16521;DHT22;8373;48.110;11.522;2023-06-19T08:54:49;28.40;46.80
16521;DHT22;8373;48.110;11.522;2023-06-19T08:57:41;28.50;47.00
16521;DHT22;8373;48.110;11.522;2023-06-19T09:00:28;28.50;46.50
16521;DHT22;8373;48.110;11.522;2023-06-19T09:03:19;28.50;46.40
16521;DHT22;8373;48.110;11.522;2023-06-19T09:05:52;28.50;45.70
16521;DHT22;8373;48.110;11.522;2023-06-19T09:08:34;28.50;44.80
16521;DHT22;8373;48.110;11.522;2023-06-19T09:11:09;28.40;45.10
16521;DHT22;8373;48.110;11.522;2023-06-19T09:13:55;28.40;45.30
16521;DHT22;8373;48.110;11.522;2023-06-19T09:16:40;28.30;45.60
16521;DHT22;8373;48.110;11.522;2023-06-19T09:19:26;28.30;46.10
16521;DHT22;8373;48.110;11.522;2023-06-19T09:22:21;28.30;46.50
16521;DHT22;8373;48.110;11.522;2023-06-19T09:28:48;28.20;46.70
16521;DHT22;8373;48.110;11.522;2023-06-19T09:35:10;28.30;47.30
16521;DHT22;8373;48.110;11.522;2023-06-19T09:41:36;28.50;47.30
16521;DHT22;8373;48.110;11.522;2023-06-19T09:44:16;28.50;47.30
16521;DHT22;8373;48.110;11.522;2023-06-19T09:46:51;28.60;47.10
16521;DHT22;8373;48.110;11.522;2023-06-19T09:49:27;28.60;47.50
16521;DHT22;8373;48.110;11.522;2023-06-19T09:52:05;28.60;47.90
16521;DHT22;8373;48.110;11.522;2023-06-19T09:54:46;28.60;48.20
16521;DHT22;8373;48.110;11.522;2023-06-19T09:57:25;28.60;48.60
16521;DHT22;8373;48.110;11.522;2023-06-19T09:59:57;28.60;47.80
16521;DHT22;8373;48.110;11.522;2023-06-19T10:02:41;28.60;47.50
16521;DHT22;8373;48.110;11.522;2023-06-19T10:05:17;28.60;47.90
16521;DHT22;8373;48.110;11.522;2023-06-19T10:08:02;28.70;48.40
16521;DHT22;8373;48.110;11.522;2023-06-19T10:10:47;28.80;47.90
16521;DHT22;8373;48.110;11.522;2023-06-19T10:13:22;28.90;47.40
16521;DHT22;8373;48.110;11.522;2023-06-19T10:16:03;28.80;47.50
16521;DHT22;8373;48.110;11.522;2023-06-19T10:18:44;28.80;47.60
16521;DHT22;8373;48.110;11.522;2023-06-19T10:22:02;28.80;47.30
16521;DHT22;8373;48.110;11.522;2023-06-19T10:28:51;28.70;47.60
16521;DHT22;8373;48.110;11.522;2023-06-19T10:31:22;28.80;47.80
16521;DHT22;8373;48.110;11.522;2023-06-19T10:41:51;29.00;46.90
16521;DHT22;8373;48.110;11.522;2023-06-19T10:51:53;28.70;46.80
16521;DHT22;8373;48.110;11.522;2023-06-19T10:54:56;28.70;47.00
16521;DHT22;8373;48.110;11.522;2023-06-19T10:58:12;28.80;46.70
16521;DHT22;8373;48.110;11.522;2023-06-19T11:00:58;29.10;46.80
16521;DHT22;8373;48.110;11.522;2023-06-19T11:03:57;29.20;45.70
16521;DHT22;8373;48.110;11.522;2023-06-19T11:06:31;29.20;45.70
16521;DHT22;8373;48.110;11.522;2023-06-19T11:12:37;29.50;44.80
16521;DHT22;8373;48.110;11.522;2023-06-19T11:18:34;29.60;44.60
16521;DHT22;8373;48.110;11.522;2023-06-19T11:21:20;29.60;43.80
16521;DHT22;8373;48.110;11.522;2023-06-19T11:24:10;29.50;43.60
16521;DHT22;8373;48.110;11.522;2023-06-19T11:34:36;29.20;44.90
16521;DHT22;8373;48.110;11.522;2023-06-19T11:37:54;29.20;44.40
16521;DHT22;8373;48.110;11.522;2023-06-19T11:40:48;29.20;43.60
16521;DHT22;8373;48.110;11.522;2023-06-19T11:44:18;29.20;43.70
16521;DHT22;8373;48.110;11.522;2023-06-19T11:47:29;29.30;43.60
16521;DHT22;8373;48.110;11.522;2023-06-19T11:50:30;29.20;43.70
16521;DHT22;8373;48.110;11.522;2023-06-19T11:53:05;29.20;44.20
16521;DHT22;8373;48.110;11.522;2023-06-19T11:55:37;29.30;44.20
16521;DHT22;8373;48.110;11.522;2023-06-19T11:58:14;29.30;43.50
16521;DHT22;8373;48.110;11.522;2023-06-19T12:00:57;29.50;43.40
16521;DHT22;8373;48.110;11.522;2023-06-19T12:03:48;29.60;43.30
16521;DHT22;8373;48.110;11.522;2023-06-19T12:06:36;29.90;43.10
16521;DHT22;8373;48.110;11.522;2023-06-19T12:09:08;29.90;42.90
16521;DHT22;8373;48.110;11.522;2023-06-19T12:11:49;29.90;42.90
16521;DHT22;8373;48.110;11.522;2023-06-19T12:17:31;29.70;43.20
16521;DHT22;8373;48.110;11.522;2023-06-19T12:20:20;29.70;42.80
16521;DHT22;8373;48.110;11.522;2023-06-19T12:23:41;29.70;42.40
16521;DHT22;8373;48.110;11.522;2023-06-19T12:26:38;29.60;42.30
16521;DHT22;8373;48.110;11.522;2023-06-19T12:32:49;29.80;42.50
16521;DHT22;8373;48.110;11.522;2023-06-19T12:39:32;30.30;41.70
16521;DHT22;8373;48.110;11.522;2023-06-19T12:52:44;30.50;41.50
16521;DHT22;8373;48.110;11.522;2023-06-19T12:55:19;30.50;40.90
16521;DHT22;8373;48.110;11.522;2023-06-19T12:58:22;30.50;41.10
16521;DHT22;8373;48.110;11.522;2023-06-19T13:01:26;30.60;41.30
16521;DHT22;8373;48.110;11.522;2023-06-19T13:03:57;30.60;40.60
16521;DHT22;8373;48.110;11.522;2023-06-19T13:10:17;30.60;40.60
16521;DHT22;8373;48.110;11.522;2023-06-19T13:13:25;30.50;41.30
16521;DHT22;8373;48.110;11.522;2023-06-19T13:16:34;30.50;41.10
16521;DHT22;8373;48.110;11.522;2023-06-19T13:19:21;30.50;41.10
16521;DHT22;8373;48.110;11.522;2023-06-19T13:25:08;30.40;41.00
16521;DHT22;8373;48.110;11.522;2023-06-19T13:28:15;30.30;41.30
16521;DHT22;8373;48.110;11.522;2023-06-19T13:30:59;30.30;41.60
16521;DHT22;8373;48.110;11.522;2023-06-19T13:33:45;30.20;41.30
16521;DHT22;8373;48.110;11.522;2023-06-19T13:36:16;30.20;41.30
16521;DHT22;8373;48.110;11.522;2023-06-19T13:38:47;30.20;41.60
16521;DHT22;8373;48.110;11.522;2023-06-19T13:41:22;30.30;41.70
16521;DHT22;8373;48.110;11.522;2023-06-19T13:47:35;30.30;41.20
16521;DHT22;8373;48.110;11.522;2023-06-19T13:50:08;30.20;41.80
16521;DHT22;8373;48.110;11.522;2023-06-19T13:52:50;30.10;41.80
16521;DHT22;8373;48.110;11.522;2023-06-19T13:55:24;30.10;41.70
16521;DHT22;8373;48.110;11.522;2023-06-19T13:58:05;30.10;41.90
16521;DHT22;8373;48.110;11.522;2023-06-19T14:00:35;30.10;42.20
16521;DHT22;8373;48.110;11.522;2023-06-19T14:03:10;30.10;41.90
16521;DHT22;8373;48.110;11.522;2023-06-19T14:05:53;30.10;41.60
16521;DHT22;8373;48.110;11.522;2023-06-19T14:08:34;30.10;41.70
16521;DHT22;8373;48.110;11.522;2023-06-19T14:11:10;30.10;41.90
16521;DHT22;8373;48.110;11.522;2023-06-19T14:14:01;30.10;41.70
16521;DHT22;8373;48.110;11.522;2023-06-19T14:16:56;30.10;41.50
16521;DHT22;8373;48.110;11.522;2023-06-19T14:19:47;30.20;41.40
16521;DHT22;8373;48.110;11.522;2023-06-19T14:22:16;30.20;41.90
16521;DHT22;8373;48.110;11.522;2023-06-19T14:24:53;30.10;41.40
16521;DHT22;8373;48.110;11.522;2023-06-19T14:30:39;30.10;41.60
16521;DHT22;8373;48.110;11.522;2023-06-19T14:33:11;30.00;41.60
16521;DHT22;8373;48.110;11.522;2023-06-19T14:35:51;30.00;42.00
16521;DHT22;8373;48.110;11.522;2023-06-19T14:38:20;29.90;42.30
16521;DHT22;8373;48.110;11.522;2023-06-19T14:40:53;29.80;42.00
16521;DHT22;8373;48.110;11.522;2023-06-19T14:43:31;29.80;42.40
16521;DHT22;8373;48.110;11.522;2023-06-19T14:46:05;29.80;41.80
16521;DHT22;8373;48.110;11.522;2023-06-19T14:48:44;29.80;42.20
16521;DHT22;8373;48.110;11.522;2023-06-19T14:51:20;29.70;42.40
16521;DHT22;8373;48.110;11.522;2023-06-19T14:54:03;29.70;42.50
16521;DHT22;8373;48.110;11.522;2023-06-19T14:57:02;29.70;42.20
16521;DHT22;8373;48.110;11.522;2023-06-19T14:59:56;29.70;41.80
16521;DHT22;8373;48.110;11.522;2023-06-19T15:03:08;29.80;41.80
16521;DHT22;8373;48.110;11.522;2023-06-19T15:06:19;29.80;41.60
16521;DHT22;8373;48.110;11.522;2023-06-19T15:09:30;29.80;41.80
16521;DHT22;8373;48.110;11.522;2023-06-19T15:22:18;29.70;42.20
16521;DHT22;8373;48.110;11.522;2023-06-19T15:36:12;29.60;42.10
16521;DHT22;8373;48.110;11.522;2023-06-19T15:39:27;29.50;42.60
16521;DHT22;8373;48.110;11.522;2023-06-19T15:46:18;29.50;42.50
16521;DHT22;8373;48.110;11.522;2023-06-19T15:52:49;29.40;42.80
16521;DHT22;8373;48.110;11.522;2023-06-19T16:34:59;28.90;44.00
16521;DHT22;8373;48.110;11.522;2023-06-19T16:41:21;28.90;44.10
16521;DHT22;8373;48.110;11.522;2023-06-19T16:51:22;28.80;44.10
16521;DHT22;8373;48.110;11.522;2023-06-19T16:54:08;28.80;44.80
16521;DHT22;8373;48.110;11.522;2023-06-19T16:57:02;28.70;45.30
16521;DHT22;8373;48.110;11.522;2023-06-19T17:03:04;28.70;44.60
16521;DHT22;8373;48.110;11.522;2023-06-19T17:35:39;28.60;45.70
16521;DHT22;8373;48.110;11.522;2023-06-19T17:38:24;28.50;45.60
16521;DHT22;8373;48.110;11.522;2023-06-19T17:41:14;28.50;45.60
16521;DHT22;8373;48.110;11.522;2023-06-19T17:43:54;28.50;46.10
16521;DHT22;8373;48.110;11.522;2023-06-19T17:46:33;28.40;46.60
16521;DHT22;8373;48.110;11.522;2023-06-19T17:49:08;28.40;46.30
16521;DHT22;8373;48.110;11.522;2023-06-19T17:51:58;28.30;46.50
16521;DHT22;8373;48.110;11.522;2023-06-19T17:58:40;28.30;46.50
16521;DHT22;8373;48.110;11.522;2023-06-19T18:11:51;28.10;46.70
16521;DHT22;8373;48.110;11.522;2023-06-19T18:14:21;28.10;46.20
16521;DHT22;8373;48.110;11.522;2023-06-19T18:16:52;28.10;46.20
16521;DHT22;8373;48.110;11.522;2023-06-19T18:19:24;28.10;46.20
16521;DHT22;8373;48.110;11.522;2023-06-19T18:21:56;28.10;46.20
16521;DHT22;8373;48.110;11.522;2023-06-19T18:24:24;28.10;46.20
16521;DHT22;8373;48.110;11.522;2023-06-19T18:26:55;28.10;46.50
16521;DHT22;8373;48.110;11.522;2023-06-19T18:29:24;28.10;46.90
16521;DHT22;8373;48.110;11.522;2023-06-19T18:31:57;28.10;46.50
16521;DHT22;8373;48.110;11.522;2023-06-19T18:34:25;28.00;46.50
16521;DHT22;8373;48.110;11.522;2023-06-19T18:36:55;28.00;46.90
16521;DHT22;8373;48.110;11.522;2023-06-19T18:39:32;28.00;47.10
16521;DHT22;8373;48.110;11.522;2023-06-19T18:42:10;28.00;46.80
16521;DHT22;8373;48.110;11.522;2023-06-19T18:44:39;28.00;47.30
16521;DHT22;8373;48.110;11.522;2023-06-19T18:47:09;27.90;46.90
16521;DHT22;8373;48.110;11.522;2023-06-19T18:49:37;27.90;47.70
16521;DHT22;8373;48.110;11.522;2023-06-19T18:52:07;27.90;47.40
16521;DHT22;8373;48.110;11.522;2023-06-19T18:54:40;27.90;48.00
16521;DHT22;8373;48.110;11.522;2023-06-19T18:57:15;27.90;47.40
16521;DHT22;8373;48.110;11.522;2023-06-19T18:59:43;27.90;47.80
16521;DHT22;8373;48.110;11.522;2023-06-19T19:02:12;27.90;47.80
16521;DHT22;8373;48.110;11.522;2023-06-19T19:04:42;27.90;47.70
16521;DHT22;8373;48.110;11.522;2023-06-19T19:07:10;27.80;47.60
16521;DHT22;8373;48.110;11.522;2023-06-19T19:09:38;27.80;49.10
16521;DHT22;8373;48.110;11.522;2023-06-19T19:12:08;27.80;48.20
16521;DHT22;8373;48.110;11.522;2023-06-19T19:14:39;27.80;48.80
16521;DHT22;8373;48.110;11.522;2023-06-19T19:17:08;27.80;49.20
16521;DHT22;8373;48.110;11.522;2023-06-19T19:19:35;27.80;49.60
16521;DHT22;8373;48.110;11.522;2023-06-19T19:22:02;27.80;49.80
16521;DHT22;8373;48.110;11.522;2023-06-19T19:24:29;27.80;49.50
16521;DHT22;8373;48.110;11.522;2023-06-19T19:26:57;27.70;49.70
16521;DHT22;8373;48.110;11.522;2023-06-19T19:29:24;27.70;49.10
16521;DHT22;8373;48.110;11.522;2023-06-19T19:31:53;27.70;49.60
16521;DHT22;8373;48.110;11.522;2023-06-19T19:34:21;27.70;49.10
16521;DHT22;8373;48.110;11.522;2023-06-19T19:36:52;27.70;49.80
16521;DHT22;8373;48.110;11.522;2023-06-19T19:39:24;27.60;49.40
16521;DHT22;8373;48.110;11.522;2023-06-19T19:41:54;27.60;49.80
16521;DHT22;8373;48.110;11.522;2023-06-19T19:44:25;27.60;49.70
16521;DHT22;8373;48.110;11.522;2023-06-19T19:46:55;27.60;49.70
16521;DHT22;8373;48.110;11.522;2023-06-19T19:49:24;27.60;51.30
16521;DHT22;8373;48.110;11.522;2023-06-19T19:51:54;27.50;50.00
16521;DHT22;8373;48.110;11.522;2023-06-19T19:54:27;27.50;50.00
16521;DHT22;8373;48.110;11.522;2023-06-19T19:57:13;27.50;50.30
16521;DHT22;8373;48.110;11.522;2023-06-19T19:59:44;27.50;50.30
16521;DHT22;8373;48.110;11.522;2023-06-19T20:02:14;27.50;50.60
16521;DHT22;8373;48.110;11.522;2023-06-19T20:04:43;27.40;50.60
16521;DHT22;8373;48.110;11.522;2023-06-19T20:07:15;27.40;50.60
16521;DHT22;8373;48.110;11.522;2023-06-19T20:09:46;27.40;50.60
16521;DHT22;8373;48.110;11.522;2023-06-19T20:12:15;27.30;50.80
16521;DHT22;8373;48.110;11.522;2023-06-19T20:14:46;27.30;50.90
16521;DHT22;8373;48.110;11.522;2023-06-19T20:17:17;27.30;51.00
16521;DHT22;8373;48.110;11.522;2023-06-19T20:19:46;27.20;51.10
16521;DHT22;8373;48.110;11.522;2023-06-19T20:22:16;27.20;51.30
16521;DHT22;8373;48.110;11.522;2023-06-19T20:24:44;27.10;51.40
16521;DHT22;8373;48.110;11.522;2023-06-19T20:27:13;27.10;51.60
16521;DHT22;8373;48.110;11.522;2023-06-19T20:29:42;27.00;51.70
16521;DHT22;8373;48.110;11.522;2023-06-19T20:32:25;27.00;51.80
16521;DHT22;8373;48.110;11.522;2023-06-19T20:34:57;26.90;51.90
16521;DHT22;8373;48.110;11.522;2023-06-19T20:37:25;26.90;52.00
16521;DHT22;8373;48.110;11.522;2023-06-19T20:40:04;26.90;52.20
16521;DHT22;8373;48.110;11.522;2023-06-19T20:42:35;26.80;52.20
16521;DHT22;8373;48.110;11.522;2023-06-19T20:45:06;26.80;52.50
16521;DHT22;8373;48.110;11.522;2023-06-19T20:47:43;26.70;52.60
16521;DHT22;8373;48.110;11.522;2023-06-19T20:50:18;26.70;52.70
16521;DHT22;8373;48.110;11.522;2023-06-19T20:53:03;26.60;52.60
16521;DHT22;8373;48.110;11.522;2023-06-19T20:55:31;26.60;53.70
16521;DHT22;8373;48.110;11.522;2023-06-19T20:58:03;26.60;53.40
16521;DHT22;8373;48.110;11.522;2023-06-19T21:00:34;26.60;53.20
16521;DHT22;8373;48.110;11.522;2023-06-19T21:03:06;26.60;53.10
16521;DHT22;8373;48.110;11.522;2023-06-19T21:05:37;26.60;53.30
16521;DHT22;8373;48.110;11.522;2023-06-19T21:08:09;26.30;53.20
16521;DHT22;8373;48.110;11.522;2023-06-19T21:10:43;26.20;53.70
16521;DHT22;8373;48.110;11.522;2023-06-19T21:13:12;26.00;54.10
16521;DHT22;8373;48.110;11.522;2023-06-19T21:15:42;26.00;54.00
16521;DHT22;8373;48.110;11.522;2023-06-19T21:18:16;25.80;53.30
16521;DHT22;8373;48.110;11.522;2023-06-19T21:20:52;25.80;53.30
16521;DHT22;8373;48.110;11.522;2023-06-19T21:23:24;25.80;54.10
16521;DHT22;8373;48.110;11.522;2023-06-19T21:26:23;25.80;55.10
16521;DHT22;8373;48.110;11.522;2023-06-19T21:33:00;25.60;56.60
16521;DHT22;8373;48.110;11.522;2023-06-19T21:38:40;25.60;57.10
16521;DHT22;8373;48.110;11.522;2023-06-19T21:41:16;25.50;56.90
16521;DHT22;8373;48.110;11.522;2023-06-19T21:44:04;25.40;57.00
16521;DHT22;8373;48.110;11.522;2023-06-19T21:46:43;25.30;57.80
16521;DHT22;8373;48.110;11.522;2023-06-19T21:49:41;25.30;58.60
16521;DHT22;8373;48.110;11.522;2023-06-19T21:52:48;25.30;59.20
16521;DHT22;8373;48.110;11.522;2023-06-19T21:59:08;25.20;59.10
16521;DHT22;8373;48.110;11.522;2023-06-19T22:01:56;25.10;59.20
16521;DHT22;8373;48.110;11.522;2023-06-19T22:05:10;24.90;59.90
16521;DHT22;8373;48.110;11.522;2023-06-19T22:08:47;24.60;60.70
16521;DHT22;8373;48.110;11.522;2023-06-19T22:12:19;24.40;62.50
16521;DHT22;8373;48.110;11.522;2023-06-19T22:25:45;23.40;67.40
16521;DHT22;8373;48.110;11.522;2023-06-19T22:32:15;23.10;70.00
16521;DHT22;8373;48.110;11.522;2023-06-19T22:35:17;23.00;71.40
16521;DHT22;8373;48.110;11.522;2023-06-19T22:38:00;22.90;71.60
16521;DHT22;8373;48.110;11.522;2023-06-19T22:41:00;22.70;73.00
16521;DHT22;8373;48.110;11.522;2023-06-19T22:44:08;22.40;73.80
16521;DHT22;8373;48.110;11.522;2023-06-19T22:47:29;22.40;74.40
16521;DHT22;8373;48.110;11.522;2023-06-19T22:57:50;22.40;76.70
16521;DHT22;8373;48.110;11.522;2023-06-19T23:00:31;22.70;76.60
16521;DHT22;8373;48.110;11.522;2023-06-19T23:03:36;22.90;77.50
16521;DHT22;8373;48.110;11.522;2023-06-19T23:06:59;23.10;78.10
16521;DHT22;8373;48.110;11.522;2023-06-19T23:10:01;23.20;78.10
16521;DHT22;8373;48.110;11.522;2023-06-19T23:19:35;23.10;75.00
16521;DHT22;8373;48.110;11.522;2023-06-19T23:22:10;23.00;76.30
16521;DHT22;8373;48.110;11.522;2023-06-19T23:25:20;23.00;77.30
16521;DHT22;8373;48.110;11.522;2023-06-19T23:35:52;23.20;78.50
